East Moline, Illinois
Current Conditions -  °F | °C
As of 2:52 PM on Tuesday 21 Oct 2014 (Local Time) from KMLI Reporting Station
Clear Clear  
Wind Chill: 59°   Ceiling: Unl
Heat Index: 59°   Visibility: 10mi
Dew Point: 38°   Wind: 12mph
Humidity: 46%   Direction: 70°ENE
Pressure: 30.17"   Gusts: NA
Location:  41.52°N, 90.44°W
Report Text: KMLI 211952Z 07010KT 10SM CLR 15/03 A3017 RMK AO2 SLP217 T01500033 $
Loading
Personal Weather Stations






























Interactive Weather Map
Tropical Storm Tracking
New forecast layout! Learn more

10-Day Weather Forecast

Advertisements
Track Severe Weather on mobile